createdAt,value
2018-02-13T00:01:16.227Z,7.10
2018-02-13T00:03:45.825Z,6.90
2018-02-13T00:06:15.410Z,6.60
2018-02-13T00:08:44.909Z,7.27
2018-02-13T00:11:14.445Z,7.67
2018-02-13T00:13:43.941Z,6.80
2018-02-13T00:16:13.470Z,7.40
2018-02-13T00:18:42.955Z,6.43
2018-02-13T00:21:13.887Z,6.87
2018-02-13T00:23:43.426Z,7.17
2018-02-13T00:26:12.956Z,7.10
2018-02-13T00:28:42.434Z,6.43
2018-02-13T00:31:15.806Z,7.07
2018-02-13T00:33:45.351Z,6.33
2018-02-13T00:36:14.930Z,6.17
2018-02-13T00:38:44.460Z,6.50
2018-02-13T00:41:13.970Z,6.70
2018-02-13T00:43:44.054Z,6.93
2018-02-13T00:46:13.577Z,6.10
2018-02-13T00:48:43.261Z,6.30
2018-02-13T00:51:12.798Z,7.47
2018-02-13T00:53:42.279Z,5.87
2018-02-13T00:56:11.788Z,7.20
2018-02-13T00:58:41.286Z,6.90
2018-02-13T01:01:10.769Z,6.30
2018-02-13T01:03:40.243Z,6.70
2018-02-13T01:06:10.867Z,6.10
2018-02-13T01:08:40.414Z,6.73
2018-02-13T01:11:16.250Z,6.93
2018-02-13T01:13:45.782Z,6.57
2018-02-13T01:16:15.258Z,6.20
2018-02-13T01:18:45.338Z,5.67
2018-02-13T01:21:21.144Z,5.90
2018-02-13T01:24:10.934Z,5.60
2018-02-13T01:26:40.430Z,4.90
2018-02-13T01:29:10.587Z,5.57
2018-02-13T01:31:40.152Z,5.43
2018-02-13T01:34:09.631Z,4.80
2018-02-13T01:36:39.129Z,5.37
2018-02-13T01:39:08.690Z,4.33
2018-02-13T01:41:38.278Z,4.40
2018-02-13T01:44:07.767Z,3.50
2018-02-13T01:46:37.314Z,3.50
2018-02-13T01:49:06.865Z,3.43
2018-02-13T01:51:42.819Z,3.80
2018-02-13T01:54:12.362Z,3.40
2018-02-13T01:56:43.192Z,3.83
2018-02-13T01:59:12.671Z,2.90
2018-02-13T02:01:42.806Z,3.30
2018-02-13T02:04:12.297Z,3.20
2018-02-13T02:06:41.919Z,2.77
2018-02-13T02:09:11.438Z,2.90
2018-02-13T02:11:40.970Z,3.10
2018-02-13T02:14:10.553Z,2.40
2018-02-13T02:16:53.534Z,2.70
2018-02-13T02:19:31.209Z,2.40
2018-02-13T02:22:14.339Z,3.10
2018-02-13T02:24:44.065Z,2.60
2018-02-13T02:27:13.625Z,2.40
2018-02-13T02:29:43.156Z,2.70
2018-02-13T02:32:12.821Z,2.67
2018-02-13T02:34:42.483Z,2.77
2018-02-13T02:37:12.040Z,2.40
2018-02-13T02:39:41.558Z,2.30
2018-02-13T02:42:11.125Z,2.23
2018-02-13T02:44:40.886Z,2.60
2018-02-13T02:47:10.478Z,2.40
2018-02-13T02:49:42.876Z,2.27
2018-02-13T02:52:19.479Z,2.23
2018-02-13T02:54:49.220Z,1.60
2018-02-13T02:57:20.613Z,1.83
2018-02-13T02:59:57.981Z,1.87
2018-02-13T03:02:27.477Z,2.00
2018-02-13T03:04:57.090Z,1.80
2018-02-13T03:07:26.753Z,1.80
2018-02-13T03:09:56.287Z,1.90
2018-02-13T03:12:29.109Z,2.30
2018-02-13T03:14:58.651Z,1.97
2018-02-13T03:17:29.162Z,2.47
2018-02-13T03:20:04.943Z,2.27
2018-02-13T03:22:40.623Z,2.00
2018-02-13T03:25:10.290Z,2.27
2018-02-13T03:27:39.862Z,2.03
2018-02-13T03:30:09.401Z,1.90
2018-02-13T03:32:39.130Z,2.33
2018-02-13T03:35:08.697Z,2.33
2018-02-13T03:37:38.266Z,2.40
2018-02-13T03:40:07.833Z,2.50
2018-02-13T03:42:37.353Z,1.80
2018-02-13T03:45:06.897Z,2.47
2018-02-13T03:47:36.474Z,2.27
2018-02-13T03:50:06.038Z,2.57
2018-02-13T03:52:35.764Z,2.50
2018-02-13T03:55:13.171Z,2.43
2018-02-13T03:57:45.825Z,2.57
2018-02-13T04:00:15.322Z,2.40
2018-02-13T04:02:44.909Z,2.60
2018-02-13T04:05:15.010Z,2.87
2018-02-13T04:07:44.540Z,2.77
2018-02-13T04:10:14.035Z,2.93
2018-02-13T04:12:44.190Z,3.00
2018-02-13T04:15:13.703Z,3.27
2018-02-13T04:17:43.231Z,3.43
2018-02-13T04:20:12.758Z,3.50
2018-02-13T04:22:42.306Z,3.50
2018-02-13T04:25:11.850Z,3.57
2018-02-13T04:27:41.359Z,3.30
2018-02-13T04:30:10.893Z,3.33
2018-02-13T04:32:49.396Z,3.20
2018-02-13T04:35:18.905Z,3.47
2018-02-13T04:37:53.743Z,3.40
2018-02-13T04:40:23.355Z,3.80
2018-02-13T04:42:52.917Z,3.83
2018-02-13T04:45:22.835Z,3.60
2018-02-13T04:48:05.897Z,4.40
2018-02-13T04:50:43.793Z,3.83
2018-02-13T04:53:16.301Z,3.63
2018-02-13T04:55:47.694Z,3.70
2018-02-13T04:58:17.457Z,3.70
2018-02-13T05:00:47.007Z,4.10
2018-02-13T05:03:16.560Z,3.63
2018-02-13T05:05:46.139Z,3.80
2018-02-13T05:08:16.076Z,3.73
2018-02-13T05:10:46.054Z,4.03
2018-02-13T05:13:15.590Z,4.10
2018-02-13T05:16:02.338Z,3.60
2018-02-13T05:18:36.441Z,4.07
2018-02-13T05:21:06.746Z,3.73
2018-02-13T05:23:37.298Z,3.57
2018-02-13T05:26:25.131Z,3.83
2018-02-13T05:28:58.314Z,2.93
2018-02-13T05:34:01.628Z,3.50
2018-02-13T05:36:31.182Z,3.40
2018-02-13T05:39:00.700Z,3.23
2018-02-13T05:41:30.394Z,3.43
2018-02-13T05:43:59.857Z,3.30
2018-02-13T05:46:30.544Z,3.40
2018-02-13T05:49:00.088Z,3.47
2018-02-13T05:51:29.699Z,3.83
2018-02-13T05:53:59.201Z,3.60
2018-02-13T05:56:28.739Z,3.63
2018-02-13T05:58:58.314Z,3.90
2018-02-13T06:01:27.835Z,3.47
2018-02-13T06:03:57.393Z,3.80
2018-02-13T06:06:26.943Z,3.77
2018-02-13T06:08:56.459Z,3.50
2018-02-13T06:11:26.175Z,3.43
2018-02-13T06:13:55.732Z,3.50
2018-02-13T06:16:25.612Z,2.90
2018-02-13T06:18:55.194Z,3.87
2018-02-13T06:21:24.724Z,3.53
2018-02-13T06:23:54.227Z,3.47
2018-02-13T06:26:23.782Z,4.00
2018-02-13T06:28:53.305Z,3.20
2018-02-13T06:31:22.831Z,3.17
2018-02-13T06:33:52.387Z,3.03
2018-02-13T06:36:21.879Z,3.63
2018-02-13T06:38:51.429Z,2.90
2018-02-13T06:41:24.368Z,3.30
2018-02-13T06:44:01.302Z,3.33
2018-02-13T06:46:30.833Z,3.43
2018-02-13T06:49:00.362Z,3.10
2018-02-13T06:51:29.939Z,3.20
2018-02-13T06:53:59.497Z,2.80
2018-02-13T06:56:29.037Z,2.70
2018-02-13T06:59:07.113Z,2.40
2018-02-13T07:01:36.623Z,3.37
2018-02-13T07:04:06.187Z,3.17
2018-02-13T07:06:49.137Z,2.70
2018-02-13T07:09:26.487Z,3.70
2018-02-13T07:11:56.728Z,3.30
2018-02-13T07:14:26.206Z,3.27
2018-02-13T07:16:55.820Z,2.70
2018-02-13T07:19:25.455Z,2.90
2018-02-13T07:21:55.014Z,3.30
2018-02-13T07:24:24.665Z,3.60
2018-02-13T07:26:57.692Z,3.37
2018-02-13T07:29:27.230Z,3.40
2018-02-13T07:31:56.807Z,2.90
2018-02-13T07:34:28.301Z,2.73
2018-02-13T07:36:57.818Z,3.30
2018-02-13T07:39:27.403Z,3.80
2018-02-13T07:41:56.962Z,3.50
2018-02-13T07:44:26.467Z,2.83
2018-02-13T07:46:56.000Z,4.77
2018-02-13T07:49:25.553Z,4.20
2018-02-13T07:51:55.130Z,4.33
2018-02-13T07:54:26.269Z,3.70
2018-02-13T07:56:55.806Z,3.00
2018-02-13T07:59:25.300Z,2.47
2018-02-13T08:02:08.435Z,2.23
2018-02-13T08:04:37.988Z,1.67
2018-02-13T08:07:07.593Z,2.63
2018-02-13T08:09:44.631Z,4.17
2018-02-13T08:12:14.224Z,4.27
2018-02-13T08:14:43.793Z,2.60
2018-02-13T08:17:13.667Z,3.00
2018-02-13T08:19:43.198Z,2.20
2018-02-13T08:22:12.738Z,2.93
2018-02-13T08:24:48.534Z,3.40
2018-02-13T08:27:18.068Z,3.07
2018-02-13T08:29:47.602Z,3.33
2018-02-13T08:32:17.137Z,2.30
2018-02-13T08:34:46.722Z,2.40
2018-02-13T08:37:16.245Z,2.70
2018-02-13T08:39:45.809Z,2.57
2018-02-13T08:42:15.310Z,1.73
2018-02-13T08:44:44.807Z,1.80
2018-02-13T08:47:14.327Z,1.90
2018-02-13T08:49:43.879Z,1.27
2018-02-13T08:52:13.387Z,0.83
2018-02-13T08:54:42.926Z,0.90
2018-02-13T08:57:12.404Z,0.90
2018-02-13T08:59:41.953Z,0.90
2018-02-13T09:02:12.077Z,1.23
2018-02-13T09:04:41.631Z,1.00
2018-02-13T09:07:11.149Z,1.10
2018-02-13T09:09:40.650Z,1.13
2018-02-13T09:12:10.228Z,1.13
2018-02-13T09:14:46.038Z,0.93
2018-02-13T09:17:15.547Z,1.23
2018-02-13T09:19:45.413Z,1.00
2018-02-13T09:22:15.242Z,1.10
2018-02-13T09:24:52.389Z,0.93
2018-02-13T09:27:22.835Z,0.90
2018-02-13T09:29:52.351Z,1.10
2018-02-13T09:32:21.906Z,1.30
2018-02-13T09:34:51.513Z,2.23
2018-02-13T09:37:21.116Z,1.27
2018-02-13T09:39:50.705Z,2.23
2018-02-13T09:42:20.330Z,1.30
2018-02-13T09:44:50.375Z,1.30
2018-02-13T09:47:32.001Z,0.90
2018-02-13T09:50:01.496Z,1.00
2018-02-13T09:52:31.142Z,1.60
2018-02-13T09:55:00.686Z,1.37
2018-02-13T09:57:30.264Z,1.10
2018-02-13T09:59:59.801Z,2.23
2018-02-13T10:02:29.334Z,0.90
2018-02-13T10:04:59.077Z,1.23
2018-02-13T10:07:28.599Z,0.93
2018-02-13T10:09:58.176Z,0.90
2018-02-13T10:12:27.688Z,1.43
2018-02-13T10:14:57.213Z,1.00
2018-02-13T10:17:40.237Z,1.30
2018-02-13T10:20:09.837Z,2.20
2018-02-13T10:22:39.446Z,1.00
2018-02-13T10:25:09.260Z,1.33
2018-02-13T10:27:38.813Z,1.53
2018-02-13T10:30:08.362Z,2.40
2018-02-13T10:32:37.862Z,2.27
2018-02-13T10:35:07.497Z,1.73
2018-02-13T10:37:37.131Z,2.50
2018-02-13T10:40:07.484Z,2.50
2018-02-13T10:42:37.064Z,1.60
2018-02-13T10:45:06.601Z,2.30
2018-02-13T10:47:36.204Z,2.73
2018-02-13T10:50:05.713Z,1.93
2018-02-13T10:52:35.210Z,2.93
2018-02-13T10:55:04.737Z,2.27
2018-02-13T10:57:34.286Z,2.20
2018-02-13T11:00:03.879Z,2.07
2018-02-13T11:02:33.439Z,1.60
2018-02-13T11:05:02.951Z,1.30
2018-02-13T11:07:32.498Z,1.33
2018-02-13T11:10:02.038Z,1.70
2018-02-13T11:12:31.659Z,1.70
2018-02-13T11:15:01.250Z,1.63
2018-02-13T11:17:37.645Z,1.60
2018-02-13T11:20:07.929Z,2.10
2018-02-13T11:22:44.416Z,2.07
2018-02-13T11:25:14.022Z,1.63
2018-02-13T11:27:43.575Z,1.90
2018-02-13T11:30:13.186Z,1.60
2018-02-13T11:32:42.710Z,2.00
2018-02-13T11:35:12.402Z,2.00
2018-02-13T11:37:41.974Z,1.60
2018-02-13T11:40:18.266Z,2.20
2018-02-13T11:42:47.789Z,2.00
2018-02-13T11:45:18.167Z,1.63
2018-02-13T11:48:02.944Z,1.53
2018-02-13T11:50:32.502Z,1.53
2018-02-13T11:53:02.071Z,1.70
2018-02-13T11:55:31.587Z,1.53
2018-02-13T11:58:01.180Z,1.57
2018-02-13T12:00:30.822Z,1.10
2018-02-13T12:03:00.363Z,1.87
2018-02-13T12:05:29.903Z,1.70
2018-02-13T12:07:59.441Z,1.57
2018-02-13T12:10:35.011Z,1.23
2018-02-13T12:13:04.577Z,1.30
2018-02-13T12:15:35.121Z,1.10
2018-02-13T12:18:05.269Z,1.43
2018-02-13T12:20:34.838Z,1.83
2018-02-13T12:23:16.535Z,1.07
2018-02-13T12:25:46.273Z,1.23
2018-02-13T12:28:15.903Z,1.10
2018-02-13T12:30:45.469Z,0.90
2018-02-13T12:33:14.969Z,3.40
2018-02-13T12:35:44.530Z,1.77
2018-02-13T12:38:14.086Z,2.60
2018-02-13T12:40:43.632Z,1.40
2018-02-13T12:43:13.169Z,1.30
2018-02-13T12:45:42.983Z,1.20
2018-02-13T12:48:12.635Z,1.80
2018-02-13T12:50:42.214Z,1.50
2018-02-13T12:53:19.196Z,1.43
2018-02-13T12:55:48.781Z,1.40
2018-02-13T12:58:18.360Z,1.33
2018-02-13T13:00:47.970Z,1.60
2018-02-13T13:03:17.589Z,1.33
2018-02-13T13:06:00.955Z,1.80
2018-02-13T13:08:30.470Z,2.80
2018-02-13T13:11:00.254Z,1.40
2018-02-13T13:13:30.211Z,1.60
2018-02-13T13:16:01.615Z,1.27
2018-02-13T13:18:31.145Z,1.73
2018-02-13T13:21:07.589Z,1.80
2018-02-13T13:23:37.366Z,1.50
2018-02-13T13:26:07.061Z,1.60
2018-02-13T13:28:38.556Z,2.00
2018-02-13T13:31:08.102Z,2.20
2018-02-13T13:33:37.607Z,2.07
2018-02-13T13:36:07.218Z,2.43
2018-02-13T13:38:36.786Z,2.00
2018-02-13T13:41:06.318Z,2.33
2018-02-13T13:43:35.875Z,2.30
2018-02-13T13:46:12.971Z,2.20
2018-02-13T13:48:42.549Z,3.60
2018-02-13T13:51:12.060Z,2.60
2018-02-13T13:53:42.056Z,2.37
2018-02-13T13:56:11.605Z,2.97
2018-02-13T13:58:41.166Z,2.30
2018-02-13T14:01:10.672Z,2.30
2018-02-13T14:03:40.194Z,2.57
2018-02-13T14:06:09.724Z,2.50
2018-02-13T14:08:40.351Z,2.27
2018-02-13T14:11:10.761Z,2.27
2018-02-13T14:13:41.194Z,4.10
2018-02-13T14:16:10.777Z,2.23
2018-02-13T14:18:41.078Z,2.30
2018-02-13T14:21:17.102Z,2.60
2018-02-13T14:23:48.034Z,2.67
2018-02-13T14:26:17.569Z,2.97
2018-02-13T14:28:47.143Z,1.97
2018-02-13T14:31:16.714Z,2.30
2018-02-13T14:33:46.942Z,1.93
2018-02-13T14:36:16.448Z,2.63
2018-02-13T14:38:46.001Z,3.10
2018-02-13T14:41:15.523Z,1.90
2018-02-13T14:43:45.083Z,2.03
2018-02-13T14:46:14.674Z,1.90
2018-02-13T14:48:58.616Z,2.60
2018-02-13T14:51:34.389Z,1.63
2018-02-13T14:54:03.945Z,2.10
2018-02-13T14:56:33.487Z,2.23
2018-02-13T14:59:02.982Z,2.00
2018-02-13T15:01:32.561Z,2.30
2018-02-13T15:04:02.100Z,2.07
2018-02-13T15:06:34.294Z,2.50
2018-02-13T15:09:03.979Z,2.37
2018-02-13T15:11:33.502Z,1.97
2018-02-13T15:14:03.358Z,1.53
2018-02-13T15:16:32.975Z,1.80
2018-02-13T15:19:02.606Z,1.93
2018-02-13T15:21:32.573Z,2.33
2018-02-13T15:24:14.985Z,1.80
2018-02-13T15:26:44.675Z,2.00
2018-02-13T15:29:14.220Z,2.00
2018-02-13T15:31:44.647Z,1.70
2018-02-13T15:34:14.417Z,1.70
2018-02-13T15:36:43.940Z,1.80
2018-02-13T15:39:13.509Z,2.20
2018-02-13T15:41:43.375Z,1.90
2018-02-13T15:44:13.230Z,2.00
2018-02-13T15:46:46.892Z,2.03
2018-02-13T15:49:16.430Z,1.50
2018-02-13T15:51:46.312Z,2.00
2018-02-13T15:54:15.842Z,1.70
2018-02-13T15:56:50.062Z,2.23
2018-02-13T15:59:19.619Z,1.60
2018-02-13T16:01:49.253Z,1.93
2018-02-13T16:04:18.816Z,1.90
2018-02-13T16:06:48.397Z,1.70
2018-02-13T16:09:21.171Z,2.00
2018-02-13T16:11:52.366Z,1.77
2018-02-13T16:14:37.345Z,2.10
2018-02-13T16:17:06.952Z,1.77
2018-02-13T16:19:36.513Z,1.97
2018-02-13T16:22:06.049Z,2.40
2018-02-13T16:24:35.606Z,2.60
2018-02-13T16:27:05.207Z,2.47
2018-02-13T16:29:35.270Z,2.00
2018-02-13T16:32:04.856Z,2.13
2018-02-13T16:34:36.240Z,2.63
2018-02-13T16:37:05.742Z,2.60
2018-02-13T16:39:35.250Z,2.63
2018-02-13T16:42:04.779Z,2.60
2018-02-13T16:44:40.587Z,3.00
2018-02-13T16:47:10.112Z,2.57
2018-02-13T16:49:39.805Z,2.60
2018-02-13T16:52:09.351Z,2.40
2018-02-13T16:54:38.924Z,2.40
2018-02-13T16:57:08.472Z,2.90
2018-02-13T16:59:37.991Z,3.30
2018-02-13T17:02:13.629Z,2.90
2018-02-13T17:04:43.295Z,2.80
2018-02-13T17:07:12.867Z,2.30
2018-02-13T17:09:42.644Z,2.47
2018-02-13T17:12:12.424Z,2.40
2018-02-13T17:14:42.002Z,2.70
2018-02-13T17:17:11.656Z,2.13
2018-02-13T17:19:41.263Z,2.33
2018-02-13T17:22:10.820Z,2.17
2018-02-13T17:24:40.777Z,2.33
2018-02-13T17:27:10.360Z,1.97
2018-02-13T17:29:39.955Z,2.57
2018-02-13T17:32:09.943Z,2.70
2018-02-13T17:34:39.506Z,2.40
2018-02-13T17:37:09.030Z,2.30
2018-02-13T17:39:47.675Z,2.20
2018-02-13T17:42:17.185Z,2.00
2018-02-13T17:44:46.705Z,2.27
2018-02-13T17:47:16.230Z,1.80
2018-02-13T17:49:45.798Z,1.93
2018-02-13T17:52:15.351Z,2.10
2018-02-13T17:54:44.891Z,2.27
2018-02-13T17:57:14.513Z,1.77
2018-02-13T17:59:52.655Z,2.10
2018-02-13T18:02:22.246Z,1.97
2018-02-13T18:04:51.828Z,2.90
2018-02-13T18:07:21.372Z,2.23
2018-02-13T18:09:50.954Z,2.00
2018-02-13T18:12:20.587Z,2.30
2018-02-13T18:14:50.086Z,2.00
2018-02-13T18:17:19.649Z,2.60
2018-02-13T18:19:50.959Z,2.10
2018-02-13T18:22:20.571Z,2.47
2018-02-13T18:24:50.168Z,2.23
2018-02-13T18:27:19.946Z,2.50
2018-02-13T18:29:49.504Z,2.43
2018-02-13T18:32:19.080Z,2.10
2018-02-13T18:34:49.514Z,2.53
2018-02-13T18:37:19.050Z,2.17
2018-02-13T18:39:48.658Z,2.67
2018-02-13T18:42:19.228Z,2.17
2018-02-13T18:44:48.787Z,2.57
2018-02-13T18:47:18.437Z,2.30
2018-02-13T18:49:48.006Z,2.40
2018-02-13T18:54:47.121Z,2.33
2018-02-13T18:57:23.493Z,2.67
2018-02-13T18:59:53.108Z,2.20
2018-02-13T19:02:30.475Z,2.50
2018-02-13T19:05:00.043Z,2.47
2018-02-13T19:07:35.746Z,2.70
2018-02-13T19:10:05.446Z,2.27
2018-02-13T19:12:35.126Z,2.27
2018-02-13T19:15:11.274Z,2.30
2018-02-13T19:17:41.719Z,2.20
2018-02-13T19:20:11.290Z,2.13
2018-02-13T19:22:41.836Z,2.10
2018-02-13T19:25:11.346Z,2.43
2018-02-13T19:27:40.971Z,2.20
2018-02-13T19:30:10.559Z,2.30
2018-02-13T19:32:40.179Z,2.40
2018-02-13T19:35:09.809Z,2.20
2018-02-13T19:37:39.353Z,2.33
2018-02-13T19:40:08.835Z,2.40
2018-02-13T19:42:38.380Z,2.50
2018-02-13T19:45:07.913Z,2.80
2018-02-13T19:47:37.557Z,2.40
2018-02-13T19:50:07.141Z,2.97
2018-02-13T19:52:36.645Z,2.57
2018-02-13T19:55:06.678Z,2.57
2018-02-13T19:57:36.219Z,2.60
2018-02-13T20:00:05.728Z,2.87
2018-02-13T20:02:35.259Z,2.40
2018-02-13T20:05:04.830Z,2.00
2018-02-13T20:07:34.374Z,2.67
2018-02-13T20:10:03.880Z,2.13
2018-02-13T20:12:39.523Z,2.80
2018-02-13T20:15:09.948Z,2.47
2018-02-13T20:17:41.182Z,2.87
2018-02-13T20:20:10.708Z,1.90
2018-02-13T20:22:40.205Z,2.93
2018-02-13T20:25:09.854Z,2.00
2018-02-13T20:27:39.362Z,2.70
2018-02-13T20:30:08.875Z,2.80
2018-02-13T20:32:38.438Z,3.13
2018-02-13T20:35:08.858Z,2.57
2018-02-13T20:37:38.395Z,2.97
2018-02-13T20:40:07.902Z,2.87
2018-02-13T20:42:37.522Z,2.60
2018-02-13T20:45:07.115Z,3.07
2018-02-13T20:47:36.606Z,2.83
2018-02-13T20:50:07.205Z,2.80
2018-02-13T20:52:36.859Z,2.70
2018-02-13T20:55:06.468Z,2.53
2018-02-13T20:57:42.710Z,2.80
2018-02-13T21:00:12.378Z,2.90
2018-02-13T21:02:42.019Z,2.63
2018-02-13T21:05:19.195Z,3.37
2018-02-13T21:07:48.776Z,3.07
2018-02-13T21:10:18.564Z,3.17
2018-02-13T21:12:48.079Z,2.90
2018-02-13T21:15:17.781Z,3.30
2018-02-13T21:17:54.764Z,3.33
2018-02-13T21:20:25.686Z,3.53
2018-02-13T21:22:55.480Z,3.10
2018-02-13T21:25:25.160Z,2.80
2018-02-13T21:27:54.791Z,2.87
2018-02-13T21:30:24.373Z,3.20
2018-02-13T21:32:53.942Z,2.80
2018-02-13T21:35:23.989Z,3.10
2018-02-13T21:37:59.830Z,2.77
2018-02-13T21:40:29.720Z,2.67
2018-02-13T21:43:00.168Z,3.50
2018-02-13T21:45:30.000Z,3.47
2018-02-13T21:47:59.566Z,3.70
2018-02-13T21:50:29.077Z,3.37
2018-02-13T21:52:58.809Z,4.00
2018-02-13T21:55:40.577Z,3.50
2018-02-13T21:58:10.134Z,3.60
2018-02-13T22:00:39.765Z,4.60
2018-02-13T23:00:42.807Z,3.50
2018-02-13T23:03:12.402Z,3.90
2018-02-13T23:05:42.019Z,3.30
2018-02-13T23:08:11.634Z,3.37
2018-02-13T23:10:41.138Z,3.73
2018-02-13T23:13:10.887Z,3.67
2018-02-13T23:15:47.453Z,3.40
2018-02-13T23:18:17.005Z,3.67
2018-02-13T23:20:46.820Z,3.53
2018-02-13T23:23:16.781Z,4.20
2018-02-13T23:25:59.302Z,3.20
2018-02-13T23:28:29.020Z,3.23
2018-02-13T23:30:58.634Z,3.87
2018-02-13T23:33:28.587Z,4.13
2018-02-13T23:35:58.850Z,4.00
2018-02-13T23:38:28.418Z,4.00
2018-02-13T23:40:57.998Z,4.40
2018-02-13T23:43:33.792Z,3.37
2018-02-13T23:46:03.327Z,3.70
2018-02-13T23:48:32.985Z,3.53
2018-02-13T23:51:02.559Z,4.20
2018-02-13T23:53:32.126Z,3.60
2018-02-13T23:56:01.814Z,4.17
2018-02-13T23:58:31.394Z,4.00
